sensor_id;sensor_type;location;lat;lon;timestamp;P1;P2;P0
35654;PMS1003;21773;50.010;19.972;2023-02-18T00:02:33;7.00;7.00;6.00
35654;PMS1003;21773;50.010;19.972;2023-02-18T00:05:36;9.00;8.00;7.00
35654;PMS1003;21773;50.010;19.972;2023-02-18T00:08:39;7.60;7.60;7.00
35654;PMS1003;21773;50.010;19.972;2023-02-18T00:11:44;6.80;6.00;5.00
35654;PMS1003;21773;50.010;19.972;2023-02-18T00:14:47;7.00;7.00;6.00
35654;PMS1003;21773;50.010;19.972;2023-02-18T00:17:52;7.40;7.00;7.00
35654;PMS1003;21773;50.010;19.972;2023-02-18T00:20:55;9.25;8.00;7.00
35654;PMS1003;21773;50.010;19.972;2023-02-18T00:23:59;7.25;6.25;6.00
35654;PMS1003;21773;50.010;19.972;2023-02-18T00:27:03;7.80;7.00;6.00
35654;PMS1003;21773;50.010;19.972;2023-02-18T00:30:06;8.00;8.00;7.00
35654;PMS1003;21773;50.010;19.972;2023-02-18T00:33:12;7.00;7.00;6.20
35654;PMS1003;21773;50.010;19.972;2023-02-18T00:36:16;8.00;8.00;6.40
35654;PMS1003;21773;50.010;19.972;2023-02-18T00:39:21;6.00;6.00;5.00
35654;PMS1003;21773;50.010;19.972;2023-02-18T00:42:25;6.60;6.00;6.00
35654;PMS1003;21773;50.010;19.972;2023-02-18T00:45:29;7.50;7.00;6.50
35654;PMS1003;21773;50.010;19.972;2023-02-18T00:48:34;7.00;6.00;6.00
35654;PMS1003;21773;50.010;19.972;2023-02-18T00:51:38;6.00;5.00;5.00
35654;PMS1003;21773;50.010;19.972;2023-02-18T00:54:42;5.60;5.00;5.00
35654;PMS1003;21773;50.010;19.972;2023-02-18T00:57:45;4.40;3.00;3.00
35654;PMS1003;21773;50.010;19.972;2023-02-18T01:00:48;4.00;4.00;4.00
35654;PMS1003;21773;50.010;19.972;2023-02-18T01:03:54;4.00;4.00;4.00
35654;PMS1003;21773;50.010;19.972;2023-02-18T01:06:57;5.80;5.80;5.00
35654;PMS1003;21773;50.010;19.972;2023-02-18T01:10:01;6.00;6.00;5.60
35654;PMS1003;21773;50.010;19.972;2023-02-18T01:13:05;4.33;4.33;4.00
35654;PMS1003;21773;50.010;19.972;2023-02-18T01:16:09;5.20;5.20;5.00
35654;PMS1003;21773;50.010;19.972;2023-02-18T01:19:14;5.50;5.00;5.00
35654;PMS1003;21773;50.010;19.972;2023-02-18T01:22:17;4.00;4.00;4.00
35654;PMS1003;21773;50.010;19.972;2023-02-18T01:25:21;6.00;6.00;5.00
35654;PMS1003;21773;50.010;19.972;2023-02-18T01:28:24;5.60;5.00;4.00
35654;PMS1003;21773;50.010;19.972;2023-02-18T01:31:28;3.00;3.00;2.50
35654;PMS1003;21773;50.010;19.972;2023-02-18T01:34:34;6.00;6.00;5.60
35654;PMS1003;21773;50.010;19.972;2023-02-18T01:37:37;6.00;6.00;5.00
35654;PMS1003;21773;50.010;19.972;2023-02-18T01:40:45;7.00;6.25;6.00
35654;PMS1003;21773;50.010;19.972;2023-02-18T01:47:19;7.00;6.00;5.00
35654;PMS1003;21773;50.010;19.972;2023-02-18T01:50:26;5.20;4.60;4.20
35654;PMS1003;21773;50.010;19.972;2023-02-18T01:53:31;5.00;5.00;5.00
35654;PMS1003;21773;50.010;19.972;2023-02-18T01:56:46;6.00;6.00;6.00
35654;PMS1003;21773;50.010;19.972;2023-02-18T01:59:53;4.40;4.00;3.40
35654;PMS1003;21773;50.010;19.972;2023-02-18T02:03:04;4.80;4.80;4.00
35654;PMS1003;21773;50.010;19.972;2023-02-18T02:06:11;4.00;4.00;3.50
35654;PMS1003;21773;50.010;19.972;2023-02-18T02:09:18;4.00;4.00;4.00
35654;PMS1003;21773;50.010;19.972;2023-02-18T02:12:35;3.00;3.00;3.00
35654;PMS1003;21773;50.010;19.972;2023-02-18T02:15:48;3.00;3.00;3.00
35654;PMS1003;21773;50.010;19.972;2023-02-18T02:18:58;4.80;4.00;4.00
35654;PMS1003;21773;50.010;19.972;2023-02-18T02:37:13;3.60;3.00;3.00
35654;PMS1003;21773;50.010;19.972;2023-02-18T02:40:27;3.00;3.00;3.00
35654;PMS1003;21773;50.010;19.972;2023-02-18T02:43:40;4.00;3.40;3.00
35654;PMS1003;21773;50.010;19.972;2023-02-18T02:46:56;3.00;3.00;2.40
35654;PMS1003;21773;50.010;19.972;2023-02-18T02:50:08;2.25;2.25;2.25
35654;PMS1003;21773;50.010;19.972;2023-02-18T02:53:18;7.00;7.00;6.40
35654;PMS1003;21773;50.010;19.972;2023-02-18T02:56:25;2.40;2.00;2.00
35654;PMS1003;21773;50.010;19.972;2023-02-18T02:59:29;3.00;2.00;2.00
35654;PMS1003;21773;50.010;19.972;2023-02-18T03:02:35;3.40;3.00;3.00
35654;PMS1003;21773;50.010;19.972;2023-02-18T03:05:54;4.00;4.00;4.00
35654;PMS1003;21773;50.010;19.972;2023-02-18T03:09:15;3.20;3.20;3.00
35654;PMS1003;21773;50.010;19.972;2023-02-18T03:12:24;4.00;4.00;4.00
35654;PMS1003;21773;50.010;19.972;2023-02-18T03:15:37;3.00;3.00;3.00
35654;PMS1003;21773;50.010;19.972;2023-02-18T03:18:50;2.25;2.25;2.25
35654;PMS1003;21773;50.010;19.972;2023-02-18T03:21:59;3.00;3.00;3.00
35654;PMS1003;21773;50.010;19.972;2023-02-18T03:25:09;4.00;4.00;4.00
35654;PMS1003;21773;50.010;19.972;2023-02-18T03:28:16;3.80;3.00;3.00
35654;PMS1003;21773;50.010;19.972;2023-02-18T03:31:22;4.40;4.40;4.00
35654;PMS1003;21773;50.010;19.972;2023-02-18T03:34:30;1.75;1.75;1.75
35654;PMS1003;21773;50.010;19.972;2023-02-18T03:37:39;2.67;2.67;2.00
35654;PMS1003;21773;50.010;19.972;2023-02-18T03:40:48;4.40;4.00;4.00
35654;PMS1003;21773;50.010;19.972;2023-02-18T03:43:58;4.00;4.00;3.00
35654;PMS1003;21773;50.010;19.972;2023-02-18T03:47:02;4.60;4.00;4.00
35654;PMS1003;21773;50.010;19.972;2023-02-18T03:50:07;2.80;2.80;2.80
35654;PMS1003;21773;50.010;19.972;2023-02-18T03:53:11;4.00;4.00;4.00
35654;PMS1003;21773;50.010;19.972;2023-02-18T03:56:16;3.00;3.00;2.50
35654;PMS1003;21773;50.010;19.972;2023-02-18T03:59:19;4.00;4.00;4.00
35654;PMS1003;21773;50.010;19.972;2023-02-18T04:02:23;2.00;2.00;2.00
35654;PMS1003;21773;50.010;19.972;2023-02-18T04:05:26;3.00;3.00;3.00
35654;PMS1003;21773;50.010;19.972;2023-02-18T04:08:41;3.20;2.00;1.80
35654;PMS1003;21773;50.010;19.972;2023-02-18T04:11:46;4.00;4.00;3.00
35654;PMS1003;21773;50.010;19.972;2023-02-18T04:14:50;4.00;3.00;3.00
35654;PMS1003;21773;50.010;19.972;2023-02-18T04:17:53;3.00;3.00;2.00
35654;PMS1003;21773;50.010;19.972;2023-02-18T04:20:57;4.00;4.00;3.00
35654;PMS1003;21773;50.010;19.972;2023-02-18T04:24:00;4.00;3.00;3.00
35654;PMS1003;21773;50.010;19.972;2023-02-18T04:27:05;3.00;3.00;2.75
35654;PMS1003;21773;50.010;19.972;2023-02-18T04:30:09;4.00;3.00;3.00
35654;PMS1003;21773;50.010;19.972;2023-02-18T04:33:13;4.00;3.50;3.00
35654;PMS1003;21773;50.010;19.972;2023-02-18T04:36:17;4.00;4.00;3.00
35654;PMS1003;21773;50.010;19.972;2023-02-18T04:39:20;2.00;2.00;2.00
35654;PMS1003;21773;50.010;19.972;2023-02-18T04:42:25;3.00;3.00;3.00
35654;PMS1003;21773;50.010;19.972;2023-02-18T04:45:28;4.00;3.50;3.00
35654;PMS1003;21773;50.010;19.972;2023-02-18T04:48:32;4.00;4.00;4.00
35654;PMS1003;21773;50.010;19.972;2023-02-18T04:51:35;4.00;4.00;3.40
35654;PMS1003;21773;50.010;19.972;2023-02-18T04:54:39;4.00;4.00;3.25
35654;PMS1003;21773;50.010;19.972;2023-02-18T04:57:43;3.75;3.75;3.75
35654;PMS1003;21773;50.010;19.972;2023-02-18T05:00:47;4.25;4.25;4.00
35654;PMS1003;21773;50.010;19.972;2023-02-18T05:03:50;4.00;3.80;3.80
35654;PMS1003;21773;50.010;19.972;2023-02-18T05:06:54;3.00;3.00;3.00
35654;PMS1003;21773;50.010;19.972;2023-02-18T05:09:57;3.00;2.00;2.00
35654;PMS1003;21773;50.010;19.972;2023-02-18T05:13:02;5.00;3.25;3.25
35654;PMS1003;21773;50.010;19.972;2023-02-18T05:16:06;3.00;2.40;2.00
35654;PMS1003;21773;50.010;19.972;2023-02-18T05:19:09;3.00;3.00;2.80
35654;PMS1003;21773;50.010;19.972;2023-02-18T05:22:16;2.40;2.40;2.00
35654;PMS1003;21773;50.010;19.972;2023-02-18T05:25:20;3.00;3.00;3.00
35654;PMS1003;21773;50.010;19.972;2023-02-18T05:28:24;2.00;2.00;2.00
35654;PMS1003;21773;50.010;19.972;2023-02-18T05:31:28;3.00;3.00;3.00
35654;PMS1003;21773;50.010;19.972;2023-02-18T05:34:31;1.00;1.00;1.00
35654;PMS1003;21773;50.010;19.972;2023-02-18T05:37:34;4.00;3.75;3.50
35654;PMS1003;21773;50.010;19.972;2023-02-18T05:40:41;2.00;2.00;2.00
35654;PMS1003;21773;50.010;19.972;2023-02-18T05:43:45;2.00;2.00;2.00
35654;PMS1003;21773;50.010;19.972;2023-02-18T05:47:07;2.00;2.00;2.00
35654;PMS1003;21773;50.010;19.972;2023-02-18T05:50:12;1.40;1.40;1.40
35654;PMS1003;21773;50.010;19.972;2023-02-18T05:53:16;1.20;1.20;1.20
35654;PMS1003;21773;50.010;19.972;2023-02-18T05:56:19;3.40;3.00;3.00
35654;PMS1003;21773;50.010;19.972;2023-02-18T05:59:24;3.00;3.00;3.00
35654;PMS1003;21773;50.010;19.972;2023-02-18T06:02:27;2.00;2.00;2.00
35654;PMS1003;21773;50.010;19.972;2023-02-18T06:05:31;5.00;4.40;4.40
35654;PMS1003;21773;50.010;19.972;2023-02-18T06:08:34;4.00;4.00;3.00
35654;PMS1003;21773;50.010;19.972;2023-02-18T06:11:38;2.33;2.33;2.33
35654;PMS1003;21773;50.010;19.972;2023-02-18T06:14:42;2.80;2.00;2.00
35654;PMS1003;21773;50.010;19.972;2023-02-18T06:17:46;2.00;2.00;1.60
35654;PMS1003;21773;50.010;19.972;2023-02-18T06:20:49;3.00;3.00;3.00
35654;PMS1003;21773;50.010;19.972;2023-02-18T06:23:52;2.00;2.00;2.00
35654;PMS1003;21773;50.010;19.972;2023-02-18T06:26:56;4.00;4.00;4.00
35654;PMS1003;21773;50.010;19.972;2023-02-18T06:30:01;1.60;1.60;1.60
35654;PMS1003;21773;50.010;19.972;2023-02-18T06:33:04;2.00;2.00;2.00
35654;PMS1003;21773;50.010;19.972;2023-02-18T06:36:08;1.00;1.00;1.00
35654;PMS1003;21773;50.010;19.972;2023-02-18T06:39:13;2.00;2.00;2.00
35654;PMS1003;21773;50.010;19.972;2023-02-18T06:42:16;2.00;2.00;2.00
35654;PMS1003;21773;50.010;19.972;2023-02-18T06:45:21;1.00;1.00;1.00
35654;PMS1003;21773;50.010;19.972;2023-02-18T06:48:24;3.00;3.00;2.00
35654;PMS1003;21773;50.010;19.972;2023-02-18T06:51:28;4.00;4.00;3.40
35654;PMS1003;21773;50.010;19.972;2023-02-18T06:54:32;2.60;2.60;2.60
35654;PMS1003;21773;50.010;19.972;2023-02-18T06:57:36;1.00;1.00;1.00
35654;PMS1003;21773;50.010;19.972;2023-02-18T07:00:40;2.80;2.80;2.20
35654;PMS1003;21773;50.010;19.972;2023-02-18T07:03:44;3.00;3.00;3.00
35654;PMS1003;21773;50.010;19.972;2023-02-18T07:06:50;4.00;4.00;4.00
35654;PMS1003;21773;50.010;19.972;2023-02-18T07:09:54;3.40;3.00;2.40
35654;PMS1003;21773;50.010;19.972;2023-02-18T07:12:57;2.00;2.00;2.00
35654;PMS1003;21773;50.010;19.972;2023-02-18T07:16:02;4.00;3.80;3.80
35654;PMS1003;21773;50.010;19.972;2023-02-18T07:19:05;2.25;2.25;2.00
35654;PMS1003;21773;50.010;19.972;2023-02-18T07:22:09;5.80;4.80;4.00
35654;PMS1003;21773;50.010;19.972;2023-02-18T07:25:13;7.25;7.25;7.00
35654;PMS1003;21773;50.010;19.972;2023-02-18T07:28:16;4.00;4.00;3.00
35654;PMS1003;21773;50.010;19.972;2023-02-18T07:31:21;4.00;4.00;4.00
35654;PMS1003;21773;50.010;19.972;2023-02-18T07:34:25;5.00;5.00;4.00
35654;PMS1003;21773;50.010;19.972;2023-02-18T07:37:28;2.00;2.00;1.00
35654;PMS1003;21773;50.010;19.972;2023-02-18T07:40:31;5.00;5.00;5.00
35654;PMS1003;21773;50.010;19.972;2023-02-18T07:43:35;6.00;6.00;6.00
35654;PMS1003;21773;50.010;19.972;2023-02-18T07:46:40;4.00;3.60;3.40
35654;PMS1003;21773;50.010;19.972;2023-02-18T07:49:43;4.50;4.00;4.00
35654;PMS1003;21773;50.010;19.972;2023-02-18T07:52:47;6.00;6.00;6.00
35654;PMS1003;21773;50.010;19.972;2023-02-18T07:55:50;4.20;4.00;3.80
35654;PMS1003;21773;50.010;19.972;2023-02-18T07:58:54;2.25;2.25;2.00
35654;PMS1003;21773;50.010;19.972;2023-02-18T08:01:58;4.40;4.00;4.00
35654;PMS1003;21773;50.010;19.972;2023-02-18T08:05:02;8.00;8.00;7.00
35654;PMS1003;21773;50.010;19.972;2023-02-18T08:08:05;4.00;4.00;4.00
35654;PMS1003;21773;50.010;19.972;2023-02-18T08:11:09;9.00;8.00;8.00
35654;PMS1003;21773;50.010;19.972;2023-02-18T08:14:20;5.00;5.00;4.25
35654;PMS1003;21773;50.010;19.972;2023-02-18T08:17:24;4.00;4.00;4.00
35654;PMS1003;21773;50.010;19.972;2023-02-18T08:20:28;5.00;5.00;5.00
35654;PMS1003;21773;50.010;19.972;2023-02-18T08:23:31;4.80;4.40;4.40
35654;PMS1003;21773;50.010;19.972;2023-02-18T08:26:35;8.00;7.00;6.60
35654;PMS1003;21773;50.010;19.972;2023-02-18T08:29:38;6.00;5.00;5.00
35654;PMS1003;21773;50.010;19.972;2023-02-18T08:32:43;5.60;5.60;5.00
35654;PMS1003;21773;50.010;19.972;2023-02-18T08:35:46;4.40;4.40;4.00
35654;PMS1003;21773;50.010;19.972;2023-02-18T08:38:52;7.25;7.25;7.25
35654;PMS1003;21773;50.010;19.972;2023-02-18T08:41:55;5.00;5.00;4.60
35654;PMS1003;21773;50.010;19.972;2023-02-18T08:44:59;6.20;6.00;5.60
35654;PMS1003;21773;50.010;19.972;2023-02-18T08:48:04;3.60;3.60;3.00
35654;PMS1003;21773;50.010;19.972;2023-02-18T08:51:21;5.00;5.00;5.00
35654;PMS1003;21773;50.010;19.972;2023-02-18T08:54:25;6.00;6.00;5.25
35654;PMS1003;21773;50.010;19.972;2023-02-18T08:57:28;3.80;3.80;3.20
35654;PMS1003;21773;50.010;19.972;2023-02-18T09:00:31;3.25;3.25;3.00
35654;PMS1003;21773;50.010;19.972;2023-02-18T09:03:36;6.00;6.00;5.50
35654;PMS1003;21773;50.010;19.972;2023-02-18T09:06:40;5.00;4.40;4.40
35654;PMS1003;21773;50.010;19.972;2023-02-18T09:09:43;2.00;2.00;2.00
35654;PMS1003;21773;50.010;19.972;2023-02-18T09:12:47;2.00;1.60;1.00
35654;PMS1003;21773;50.010;19.972;2023-02-18T09:15:57;0.80;0.80;0.80
35654;PMS1003;21773;50.010;19.972;2023-02-18T09:19:03;3.00;3.00;3.00
35654;PMS1003;21773;50.010;19.972;2023-02-18T09:22:06;2.00;1.40;1.00
35654;PMS1003;21773;50.010;19.972;2023-02-18T09:25:10;2.00;2.00;2.00
35654;PMS1003;21773;50.010;19.972;2023-02-18T09:28:13;2.00;2.00;1.00
35654;PMS1003;21773;50.010;19.972;2023-02-18T09:31:17;1.60;1.00;1.00
35654;PMS1003;21773;50.010;19.972;2023-02-18T09:34:24;2.75;2.00;2.00
35654;PMS1003;21773;50.010;19.972;2023-02-18T09:37:27;2.00;2.00;1.60
35654;PMS1003;21773;50.010;19.972;2023-02-18T09:40:31;2.00;2.00;2.00
35654;PMS1003;21773;50.010;19.972;2023-02-18T09:43:38;2.00;2.00;2.00
35654;PMS1003;21773;50.010;19.972;2023-02-18T09:46:46;4.00;4.00;4.00
35654;PMS1003;21773;50.010;19.972;2023-02-18T09:49:55;5.50;5.50;5.00
35654;PMS1003;21773;50.010;19.972;2023-02-18T09:53:02;5.00;5.00;5.00
35654;PMS1003;21773;50.010;19.972;2023-02-18T09:56:06;7.40;7.00;7.00
35654;PMS1003;21773;50.010;19.972;2023-02-18T09:59:13;6.00;6.00;5.20
35654;PMS1003;21773;50.010;19.972;2023-02-18T10:02:19;4.00;4.00;4.00
35654;PMS1003;21773;50.010;19.972;2023-02-18T10:05:25;5.20;5.00;5.00
35654;PMS1003;21773;50.010;19.972;2023-02-18T10:08:32;4.00;4.00;3.00
35654;PMS1003;21773;50.010;19.972;2023-02-18T10:11:39;6.20;5.80;5.40
35654;PMS1003;21773;50.010;19.972;2023-02-18T10:14:45;5.00;5.00;4.00
35654;PMS1003;21773;50.010;19.972;2023-02-18T10:17:51;5.00;4.00;4.00
35654;PMS1003;21773;50.010;19.972;2023-02-18T10:21:00;4.00;4.00;3.00
35654;PMS1003;21773;50.010;19.972;2023-02-18T10:24:18;4.00;4.00;3.00
35654;PMS1003;21773;50.010;19.972;2023-02-18T10:27:31;4.00;4.00;4.00
35654;PMS1003;21773;50.010;19.972;2023-02-18T10:30:39;2.40;2.40;2.00
35654;PMS1003;21773;50.010;19.972;2023-02-18T10:33:45;1.00;1.00;1.00
35654;PMS1003;21773;50.010;19.972;2023-02-18T10:36:54;4.00;4.00;4.00
35654;PMS1003;21773;50.010;19.972;2023-02-18T10:40:02;3.00;2.80;2.20
35654;PMS1003;21773;50.010;19.972;2023-02-18T10:43:14;2.00;2.00;1.80
35654;PMS1003;21773;50.010;19.972;2023-02-18T10:46:25;4.40;4.00;4.00
35654;PMS1003;21773;50.010;19.972;2023-02-18T10:49:47;2.00;2.00;2.00
35654;PMS1003;21773;50.010;19.972;2023-02-18T10:53:00;2.80;2.80;2.80
35654;PMS1003;21773;50.010;19.972;2023-02-18T10:56:13;1.00;1.00;1.00
35654;PMS1003;21773;50.010;19.972;2023-02-18T10:59:35;3.00;3.00;3.00
35654;PMS1003;21773;50.010;19.972;2023-02-18T11:02:39;3.60;3.00;3.00
35654;PMS1003;21773;50.010;19.972;2023-02-18T11:05:43;2.25;2.25;2.00
35654;PMS1003;21773;50.010;19.972;2023-02-18T11:08:49;2.00;2.00;2.00
35654;PMS1003;21773;50.010;19.972;2023-02-18T11:12:03;3.00;2.00;2.00
35654;PMS1003;21773;50.010;19.972;2023-02-18T11:15:15;3.40;3.40;3.00
35654;PMS1003;21773;50.010;19.972;2023-02-18T11:18:25;3.00;2.60;2.00
35654;PMS1003;21773;50.010;19.972;2023-02-18T11:21:34;2.80;2.00;2.00
35654;PMS1003;21773;50.010;19.972;2023-02-18T11:24:40;1.00;1.00;1.00
35654;PMS1003;21773;50.010;19.972;2023-02-18T11:27:49;6.00;5.60;5.00
35654;PMS1003;21773;50.010;19.972;2023-02-18T11:30:57;4.00;4.00;3.60
35654;PMS1003;21773;50.010;19.972;2023-02-18T11:34:03;2.40;2.40;2.00
35654;PMS1003;21773;50.010;19.972;2023-02-18T11:37:08;3.00;3.00;2.60
35654;PMS1003;21773;50.010;19.972;2023-02-18T11:40:20;4.00;4.00;4.00
35654;PMS1003;21773;50.010;19.972;2023-02-18T11:43:27;4.00;3.00;3.00
35654;PMS1003;21773;50.010;19.972;2023-02-18T11:46:32;3.00;3.00;3.00
35654;PMS1003;21773;50.010;19.972;2023-02-18T11:49:36;5.00;5.00;4.60
35654;PMS1003;21773;50.010;19.972;2023-02-18T11:52:40;3.00;3.00;3.00
35654;PMS1003;21773;50.010;19.972;2023-02-18T11:55:52;2.50;2.50;2.50
35654;PMS1003;21773;50.010;19.972;2023-02-18T11:58:57;6.00;6.00;5.00
35654;PMS1003;21773;50.010;19.972;2023-02-18T12:02:04;5.75;5.00;5.00
35654;PMS1003;21773;50.010;19.972;2023-02-18T12:05:27;5.60;5.00;4.60
35654;PMS1003;21773;50.010;19.972;2023-02-18T12:08:34;4.60;4.60;4.60
35654;PMS1003;21773;50.010;19.972;2023-02-18T12:11:51;7.00;6.40;6.00
35654;PMS1003;21773;50.010;19.972;2023-02-18T12:15:00;5.20;5.20;5.00
35654;PMS1003;21773;50.010;19.972;2023-02-18T12:18:17;6.60;5.60;5.00
35654;PMS1003;21773;50.010;19.972;2023-02-18T12:21:33;7.40;6.40;5.40
35654;PMS1003;21773;50.010;19.972;2023-02-18T12:24:47;5.00;5.00;5.00
35654;PMS1003;21773;50.010;19.972;2023-02-18T12:28:16;5.00;5.00;5.00
35654;PMS1003;21773;50.010;19.972;2023-02-18T12:31:43;5.50;5.50;4.50
35654;PMS1003;21773;50.010;19.972;2023-02-18T12:35:06;3.00;3.00;3.00
35654;PMS1003;21773;50.010;19.972;2023-02-18T12:38:25;4.00;3.00;3.00
35654;PMS1003;21773;50.010;19.972;2023-02-18T12:41:46;4.00;4.00;3.00
35654;PMS1003;21773;50.010;19.972;2023-02-18T12:45:02;6.00;6.00;5.00
35654;PMS1003;21773;50.010;19.972;2023-02-18T12:48:30;3.40;3.40;3.00
35654;PMS1003;21773;50.010;19.972;2023-02-18T12:51:55;4.00;4.00;3.00
35654;PMS1003;21773;50.010;19.972;2023-02-18T12:55:24;4.40;3.00;3.00
35654;PMS1003;21773;50.010;19.972;2023-02-18T12:58:39;3.60;2.60;2.60
35654;PMS1003;21773;50.010;19.972;2023-02-18T13:01:55;5.00;5.00;4.40
35654;PMS1003;21773;50.010;19.972;2023-02-18T13:05:04;3.00;3.00;3.00
35654;PMS1003;21773;50.010;19.972;2023-02-18T13:08:17;6.00;6.00;6.00
35654;PMS1003;21773;50.010;19.972;2023-02-18T13:11:35;5.20;5.00;4.80
35654;PMS1003;21773;50.010;19.972;2023-02-18T13:14:46;4.00;4.00;3.00
35654;PMS1003;21773;50.010;19.972;2023-02-18T13:17:53;4.00;4.00;4.00
35654;PMS1003;21773;50.010;19.972;2023-02-18T13:21:00;6.75;6.00;6.00
35654;PMS1003;21773;50.010;19.972;2023-02-18T13:24:09;3.00;2.75;2.00
35654;PMS1003;21773;50.010;19.972;2023-02-18T13:27:17;4.00;4.00;3.80
35654;PMS1003;21773;50.010;19.972;2023-02-18T13:30:26;6.00;4.60;4.00
35654;PMS1003;21773;50.010;19.972;2023-02-18T13:33:39;7.00;7.00;6.00
35654;PMS1003;21773;50.010;19.972;2023-02-18T13:36:51;5.00;5.00;5.00
35654;PMS1003;21773;50.010;19.972;2023-02-18T13:40:01;6.33;6.33;5.33
35654;PMS1003;21773;50.010;19.972;2023-02-18T13:43:19;7.00;7.00;6.00
35654;PMS1003;21773;50.010;19.972;2023-02-18T13:46:30;7.00;7.00;6.00
35654;PMS1003;21773;50.010;19.972;2023-02-18T13:49:36;5.20;5.00;5.00
35654;PMS1003;21773;50.010;19.972;2023-02-18T13:52:41;6.80;5.80;5.80
35654;PMS1003;21773;50.010;19.972;2023-02-18T13:55:49;8.40;7.40;7.00
35654;PMS1003;21773;50.010;19.972;2023-02-18T13:59:07;10.00;8.00;7.00
35654;PMS1003;21773;50.010;19.972;2023-02-18T14:05:58;7.60;7.00;6.60
35654;PMS1003;21773;50.010;19.972;2023-02-18T14:12:39;6.40;6.40;6.00
35654;PMS1003;21773;50.010;19.972;2023-02-18T14:15:49;7.00;6.40;5.80
35654;PMS1003;21773;50.010;19.972;2023-02-18T14:18:57;7.00;6.00;5.00
35654;PMS1003;21773;50.010;19.972;2023-02-18T14:25:34;9.00;7.67;7.00
35654;PMS1003;21773;50.010;19.972;2023-02-18T14:28:42;7.60;7.00;5.80
35654;PMS1003;21773;50.010;19.972;2023-02-18T14:31:51;8.00;7.00;6.60
35654;PMS1003;21773;50.010;19.972;2023-02-18T14:35:02;7.60;6.60;5.60
35654;PMS1003;21773;50.010;19.972;2023-02-18T14:38:19;6.00;5.00;5.00
35654;PMS1003;21773;50.010;19.972;2023-02-18T14:41:39;6.20;6.00;5.20
35654;PMS1003;21773;50.010;19.972;2023-02-18T14:44:58;12.00;11.00;10.00
35654;PMS1003;21773;50.010;19.972;2023-02-18T14:48:16;7.00;7.00;5.50
35654;PMS1003;21773;50.010;19.972;2023-02-18T14:51:33;8.20;8.20;7.20
35654;PMS1003;21773;50.010;19.972;2023-02-18T14:54:39;11.40;10.40;9.00
35654;PMS1003;21773;50.010;19.972;2023-02-18T14:57:44;15.00;14.00;12.00
35654;PMS1003;21773;50.010;19.972;2023-02-18T15:00:51;16.50;16.00;15.00
35654;PMS1003;21773;50.010;19.972;2023-02-18T15:03:54;11.00;10.00;9.00
35654;PMS1003;21773;50.010;19.972;2023-02-18T15:06:59;12.00;10.20;9.80
35654;PMS1003;21773;50.010;19.972;2023-02-18T15:10:11;12.20;11.80;10.20
35654;PMS1003;21773;50.010;19.972;2023-02-18T15:13:16;13.40;12.40;10.40
35654;PMS1003;21773;50.010;19.972;2023-02-18T15:16:24;15.50;14.00;13.00
35654;PMS1003;21773;50.010;19.972;2023-02-18T15:19:34;12.40;12.40;11.40
35654;PMS1003;21773;50.010;19.972;2023-02-18T15:22:41;12.00;11.00;9.00
35654;PMS1003;21773;50.010;19.972;2023-02-18T15:25:51;10.20;9.20;8.00
35654;PMS1003;21773;50.010;19.972;2023-02-18T15:28:57;12.40;12.00;11.00
35654;PMS1003;21773;50.010;19.972;2023-02-18T15:32:09;9.00;9.00;8.00
35654;PMS1003;21773;50.010;19.972;2023-02-18T15:35:18;13.00;11.60;10.00
35654;PMS1003;21773;50.010;19.972;2023-02-18T15:38:24;13.00;13.00;12.00
35654;PMS1003;21773;50.010;19.972;2023-02-18T15:41:31;13.00;11.00;9.00
35654;PMS1003;21773;50.010;19.972;2023-02-18T15:44:35;11.00;10.00;9.25
35654;PMS1003;21773;50.010;19.972;2023-02-18T15:47:40;10.00;10.00;8.40
35654;PMS1003;21773;50.010;19.972;2023-02-18T15:50:47;13.00;13.00;11.00
35654;PMS1003;21773;50.010;19.972;2023-02-18T15:53:54;15.00;13.00;13.00
35654;PMS1003;21773;50.010;19.972;2023-02-18T15:57:03;12.00;11.00;9.00
35654;PMS1003;21773;50.010;19.972;2023-02-18T16:00:12;11.40;11.00;10.00
35654;PMS1003;21773;50.010;19.972;2023-02-18T16:03:19;12.20;11.60;10.00
35654;PMS1003;21773;50.010;19.972;2023-02-18T16:06:25;13.00;11.00;9.00
35654;PMS1003;21773;50.010;19.972;2023-02-18T16:09:31;15.00;13.80;11.80
35654;PMS1003;21773;50.010;19.972;2023-02-18T16:12:37;14.50;13.25;11.50
35654;PMS1003;21773;50.010;19.972;2023-02-18T16:15:42;17.50;16.00;14.00
35654;PMS1003;21773;50.010;19.972;2023-02-18T16:18:48;16.00;13.75;12.00
35654;PMS1003;21773;50.010;19.972;2023-02-18T16:21:51;16.00;16.00;13.20
35654;PMS1003;21773;50.010;19.972;2023-02-18T16:24:55;20.00;19.60;16.00
35654;PMS1003;21773;50.010;19.972;2023-02-18T16:28:04;21.00;19.00;16.00
35654;PMS1003;21773;50.010;19.972;2023-02-18T16:31:14;26.40;23.00;20.00
35654;PMS1003;21773;50.010;19.972;2023-02-18T16:34:17;23.80;22.80;19.80
35654;PMS1003;21773;50.010;19.972;2023-02-18T16:37:21;25.60;23.00;20.00
35654;PMS1003;21773;50.010;19.972;2023-02-18T16:40:42;23.40;20.00;18.00
35654;PMS1003;21773;50.010;19.972;2023-02-18T16:43:47;27.25;25.25;22.00
35654;PMS1003;21773;50.010;19.972;2023-02-18T16:46:52;24.00;21.60;18.00
35654;PMS1003;21773;50.010;19.972;2023-02-18T16:49:55;21.00;19.00;16.00
35654;PMS1003;21773;50.010;19.972;2023-02-18T16:52:59;20.40;19.40;18.40
35654;PMS1003;21773;50.010;19.972;2023-02-18T16:56:03;22.00;21.00;17.80
35654;PMS1003;21773;50.010;19.972;2023-02-18T16:59:08;20.00;18.00;16.00
35654;PMS1003;21773;50.010;19.972;2023-02-18T17:02:13;25.60;23.60;19.60
35654;PMS1003;21773;50.010;19.972;2023-02-18T17:05:21;19.00;17.00;14.00
35654;PMS1003;21773;50.010;19.972;2023-02-18T17:08:27;26.00;25.00;20.60
35654;PMS1003;21773;50.010;19.972;2023-02-18T17:11:32;28.00;24.60;20.60
35654;PMS1003;21773;50.010;19.972;2023-02-18T17:14:38;24.00;21.00;18.00
35654;PMS1003;21773;50.010;19.972;2023-02-18T17:17:41;22.00;20.00;18.40
35654;PMS1003;21773;50.010;19.972;2023-02-18T17:20:45;22.40;21.40;18.60
35654;PMS1003;21773;50.010;19.972;2023-02-18T17:23:50;21.60;18.60;16.60
35654;PMS1003;21773;50.010;19.972;2023-02-18T17:26:54;18.00;15.00;13.50
35654;PMS1003;21773;50.010;19.972;2023-02-18T17:30:01;12.60;11.60;10.60
35654;PMS1003;21773;50.010;19.972;2023-02-18T17:33:05;9.20;9.00;8.00
35654;PMS1003;21773;50.010;19.972;2023-02-18T17:36:13;10.00;9.00;8.00
35654;PMS1003;21773;50.010;19.972;2023-02-18T17:39:16;10.00;7.60;6.60
35654;PMS1003;21773;50.010;19.972;2023-02-18T17:42:20;9.00;9.00;9.00
35654;PMS1003;21773;50.010;19.972;2023-02-18T17:45:26;9.00;8.00;8.00
35654;PMS1003;21773;50.010;19.972;2023-02-18T17:48:33;9.40;9.00;8.00
35654;PMS1003;21773;50.010;19.972;2023-02-18T17:51:38;8.00;8.00;7.00
35654;PMS1003;21773;50.010;19.972;2023-02-18T17:54:41;10.00;10.00;8.00
35654;PMS1003;21773;50.010;19.972;2023-02-18T17:57:44;8.00;8.00;7.00
35654;PMS1003;21773;50.010;19.972;2023-02-18T18:00:50;6.75;6.75;6.00
35654;PMS1003;21773;50.010;19.972;2023-02-18T18:03:55;7.60;7.00;6.00
35654;PMS1003;21773;50.010;19.972;2023-02-18T18:06:58;9.00;8.80;7.80
35654;PMS1003;21773;50.010;19.972;2023-02-18T18:10:02;9.00;8.00;7.00
35654;PMS1003;21773;50.010;19.972;2023-02-18T18:13:06;11.00;9.00;8.40
35654;PMS1003;21773;50.010;19.972;2023-02-18T18:16:13;10.00;9.00;7.00
35654;PMS1003;21773;50.010;19.972;2023-02-18T18:19:17;9.40;8.40;7.80
35654;PMS1003;21773;50.010;19.972;2023-02-18T18:22:21;7.60;7.00;7.00